Time;durP1;ratioP1;P1;durP2;ratioP2;P2;SDS_P1;SDS_P2;PMS_P1;PMS_P2;Temp;Humidity;BMP_temperature;BMP_pressure;BME280_temperature;BME280_humidity;BME280_pressure;Samples;Min_cycle;Max_cycle;Signal;HPM_P1;HPM_P2
2023/05/09 00:01:10;;;;;;;28.03;19.97;;;;;;;13.22;100.00;98426.72;5071344;28;20231;-74
2023/05/09 00:03:37;;;;;;;26.77;19.80;;;;;;;13.21;100.00;98425.03;5071796;28;20220;-74
2023/05/09 00:06:03;;;;;;;28.83;20.87;;;;;;;13.21;100.00;98425.03;5071742;28;20209;-74
2023/05/09 00:08:30;;;;;;;28.77;20.60;;;;;;;13.19;100.00;98418.97;5071502;28;20228;-76
2023/05/09 00:10:56;;;;;;;27.47;20.77;;;;;;;13.16;100.00;98427.16;5071430;28;20229;-74
2023/05/09 00:13:23;;;;;;;30.10;21.67;;;;;;;13.14;100.00;98413.19;5072018;28;20216;-75
2023/05/09 00:15:52;;;;;;;30.97;21.93;;;;;;;13.09;100.00;98420.63;5071430;28;20709;-74
2023/05/09 00:18:19;;;;;;;30.33;21.03;;;;;;;13.03;100.00;98413.94;5071657;28;20286;-74
2023/05/09 00:20:45;;;;;;;30.23;21.40;;;;;;;13.05;100.00;98413.84;5070960;28;20745;-74
2023/05/09 00:23:12;;;;;;;31.13;21.70;;;;;;;13.06;100.00;98404.91;5071650;28;20207;-74
2023/05/09 00:25:38;;;;;;;31.60;21.97;;;;;;;13.04;100.00;98401.53;5071633;28;20216;-74
2023/05/09 00:28:05;;;;;;;33.37;23.00;;;;;;;13.00;100.00;98400.94;5071144;28;20230;-74
2023/05/09 00:30:31;;;;;;;31.33;21.80;;;;;;;12.99;100.00;98401.03;5071201;28;20228;-74
2023/05/09 00:32:59;;;;;;;31.97;21.83;;;;;;;12.95;100.00;98391.59;5071202;28;20591;-74
2023/05/09 00:35:26;;;;;;;28.90;19.83;;;;;;;12.92;100.00;98389.16;5071241;28;20215;-75
2023/05/09 00:37:52;;;;;;;28.43;20.27;;;;;;;12.84;100.00;98391.53;5071356;28;20199;-74
2023/05/09 00:40:19;;;;;;;29.57;19.97;;;;;;;12.79;100.00;98385.72;5070890;28;20234;-74
2023/05/09 00:42:45;;;;;;;28.20;20.30;;;;;;;12.75;100.00;98385.09;5071063;28;20211;-74
2023/05/09 00:45:12;;;;;;;30.53;20.40;;;;;;;12.75;100.00;98384.25;5070754;28;20218;-74
2023/05/09 00:47:39;;;;;;;32.10;21.10;;;;;;;12.75;100.00;98379.81;5070892;28;20238;-74
2023/05/09 00:50:09;;;;;;;28.40;19.83;;;;;;;12.75;100.00;98378.94;5070610;28;20223;-74
2023/05/09 00:52:36;;;;;;;33.00;21.50;;;;;;;12.73;100.00;98372.91;5071174;28;20212;-75
2023/05/09 00:55:03;;;;;;;31.50;22.17;;;;;;;12.73;100.00;98379.09;5071147;28;20204;-74
2023/05/09 00:57:29;;;;;;;29.37;20.47;;;;;;;12.72;100.00;98372.06;5070994;28;20232;-74
2023/05/09 00:59:56;;;;;;;29.70;21.17;;;;;;;12.70;100.00;98375.78;5069722;28;20589;-74
2023/05/09 01:02:23;;;;;;;30.27;21.13;;;;;;;12.72;100.00;98368.59;5070783;28;20302;-74
2023/05/09 01:04:49;;;;;;;32.40;21.47;;;;;;;12.75;100.00;98366.53;5070988;28;20207;-74
2023/05/09 01:07:25;;;;;;;31.20;21.97;;;;;;;12.83;100.00;98360.69;5070842;28;20218;-74
2023/05/09 01:10:00;;;;;;;35.07;23.83;;;;;;;12.87;100.00;98356.81;5070767;28;20224;-74
2023/05/09 01:12:34;;;;;;;31.33;21.00;;;;;;;12.87;100.00;98359.47;5071070;28;20209;-74
2023/05/09 01:15:08;;;;;;;33.67;22.27;;;;;;;12.85;100.00;98348.13;5070770;28;20211;-74
2023/05/09 01:17:45;;;;;;;32.17;21.23;;;;;;;12.82;100.00;98351.88;5071027;28;20207;-74
2023/05/09 01:20:17;;;;;;;31.97;22.13;;;;;;;12.81;100.00;98351.97;5070672;28;20223;-74
2023/05/09 01:22:48;;;;;;;29.90;20.20;;;;;;;12.76;100.00;98348.81;5070757;28;20211;-75
2023/05/09 01:25:43;;;;;;;29.93;20.03;;;;;;;12.72;100.00;98348.19;5070936;28;20540;-75
2023/05/09 01:28:26;;;;;;;28.43;20.00;;;;;;;12.65;100.00;98356.75;5071022;28;20232;-75
2023/05/09 01:30:55;;;;;;;31.77;21.23;;;;;;;12.59;100.00;98352.72;5070393;28;20720;-75
2023/05/09 01:33:24;;;;;;;29.20;20.20;;;;;;;12.54;100.00;98354.03;5070716;28;20210;-75
2023/05/09 01:35:57;;;;;;;32.93;22.80;;;;;;;12.51;100.00;98356.88;5070802;28;20207;-75
2023/05/09 01:38:25;;;;;;;32.03;21.97;;;;;;;12.51;100.00;98355.09;5070946;28;20229;-75
2023/05/09 01:40:54;;;;;;;30.47;21.20;;;;;;;12.50;100.00;98352.53;5070518;28;20618;-75
2023/05/09 01:43:24;;;;;;;31.33;22.30;;;;;;;12.47;100.00;98347.50;5070751;28;20639;-75
2023/05/09 01:45:52;;;;;;;30.57;21.07;;;;;;;12.46;100.00;98345.81;5070639;28;20207;-74
2023/05/09 01:48:25;;;;;;;30.13;21.33;;;;;;;12.46;100.00;98343.16;5070381;28;20236;-75
2023/05/09 01:50:53;;;;;;;36.67;22.97;;;;;;;12.53;100.00;98341.72;5070463;28;20238;-75
2023/05/09 01:53:21;;;;;;;36.97;23.80;;;;;;;12.59;100.00;98335.97;5070666;28;20257;-74
2023/05/09 01:55:50;;;;;;;39.17;25.97;;;;;;;12.70;100.00;98334.22;5071870;28;20221;-75
2023/05/09 01:58:18;;;;;;;38.93;25.13;;;;;;;12.75;100.00;98336.50;5074175;28;20199;-75
2023/05/09 02:00:45;;;;;;;38.77;24.67;;;;;;;12.79;100.00;98324.72;5073861;28;20238;-75
2023/05/09 02:03:13;;;;;;;39.63;24.80;;;;;;;12.82;100.00;98332.44;5074303;28;20637;-75
2023/05/09 02:05:42;;;;;;;39.73;25.13;;;;;;;12.85;100.00;98333.06;5074028;28;20718;-75
2023/05/09 02:08:09;;;;;;;37.50;24.20;;;;;;;12.87;100.00;98330.28;5074081;28;20235;-75
2023/05/09 02:10:37;;;;;;;38.80;25.43;;;;;;;12.89;100.00;98333.69;5073809;28;20246;-75
2023/05/09 02:13:04;;;;;;;38.20;25.30;;;;;;;12.93;100.00;98329.84;5074102;28;20214;-75
2023/05/09 02:15:30;;;;;;;39.53;25.17;;;;;;;12.92;100.00;98330.78;5074400;28;20223;-75
2023/05/09 02:17:57;;;;;;;38.17;24.77;;;;;;;12.91;100.00;98332.59;5074128;28;20199;-75
2023/05/09 02:20:23;;;;;;;39.30;25.17;;;;;;;12.91;100.00;98331.75;5073755;28;20243;-75
2023/05/09 02:22:52;;;;;;;37.13;25.10;;;;;;;12.95;100.00;98338.53;5073932;28;20218;-75
2023/05/09 02:25:18;;;;;;;36.70;23.57;;;;;;;12.98;100.00;98338.31;5073863;28;20298;-75
2023/05/09 02:27:46;;;;;;;41.97;25.47;;;;;;;13.01;100.00;98338.13;5073673;28;20204;-76
2023/05/09 02:30:19;;;;;;;41.70;26.87;;;;;;;13.08;100.00;98336.69;5073226;28;20227;-74
2023/05/09 02:32:48;;;;;;;41.73;27.37;;;;;;;13.14;100.00;98336.22;5073994;28;20212;-74
2023/05/09 02:35:17;;;;;;;35.67;24.73;;;;;;;13.16;100.00;98337.78;5073644;28;20203;-74
2023/05/09 02:37:44;;;;;;;36.00;23.83;;;;;;;13.16;100.00;98336.94;5073628;28;20215;-74
2023/05/09 02:40:13;;;;;;;34.40;23.60;;;;;;;13.17;100.00;98334.16;5073034;28;20706;-74
2023/05/09 02:42:40;;;;;;;36.30;24.83;;;;;;;13.18;100.00;98325.25;5073412;28;20211;-75
2023/05/09 02:45:09;;;;;;;37.27;25.00;;;;;;;13.19;100.00;98326.94;5073820;28;20239;-74
2023/05/09 02:47:35;;;;;;;35.73;24.37;;;;;;;13.19;100.00;98326.06;5073606;28;20242;-74
2023/05/09 02:50:02;;;;;;;34.67;24.37;;;;;;;13.19;100.00;98318.97;5072990;28;20231;-74
2023/05/09 02:52:29;;;;;;;32.20;23.20;;;;;;;13.14;100.00;98315.00;5073372;28;20218;-74
2023/05/09 02:54:55;;;;;;;30.37;21.73;;;;;;;13.07;100.00;98311.13;5073240;28;20242;-74
2023/05/09 02:57:23;;;;;;;34.20;23.43;;;;;;;13.02;100.00;98314.09;5073543;28;20222;-74
2023/05/09 02:59:50;;;;;;;30.97;21.37;;;;;;;13.00;100.00;98302.75;5076576;22;20283;-83
2023/05/09 03:02:17;;;;;;;32.03;21.77;;;;;;;12.98;100.00;98303.84;5033723;28;20562;-83
2023/05/09 03:04:44;;;;;;;30.20;21.47;;;;;;;12.95;100.00;98301.41;5033459;28;20667;-82
2023/05/09 03:07:10;;;;;;;29.67;21.73;;;;;;;12.94;100.00;98299.69;5033208;28;20225;-82
2023/05/09 03:09:37;;;;;;;33.70;22.40;;;;;;;12.89;100.00;98300.03;5032828;28;20243;-83
2023/05/09 03:12:04;;;;;;;27.47;20.53;;;;;;;12.85;100.00;98301.22;5033608;28;20221;-82
2023/05/09 03:14:32;;;;;;;29.93;21.07;;;;;;;12.81;100.00;98297.13;5033564;28;20220;-82
2023/05/09 03:16:58;;;;;;;30.23;20.83;;;;;;;12.79;100.00;98300.84;5033403;28;20235;-83
2023/05/09 03:19:25;;;;;;;28.17;20.60;;;;;;;12.74;100.00;98303.00;5032968;28;20225;-82
2023/05/09 03:21:51;;;;;;;30.53;20.80;;;;;;;12.71;100.00;98303.25;5033383;28;20223;-83
2023/05/09 03:24:18;;;;;;;28.73;20.57;;;;;;;12.69;100.00;98299.84;5033327;28;20299;-82
2023/05/09 03:26:44;;;;;;;28.20;19.53;;;;;;;12.65;100.00;98293.09;5033084;28;20215;-82
2023/05/09 03:29:11;;;;;;;28.70;20.77;;;;;;;12.63;100.00;98301.16;5032544;28;20710;-82
2023/05/09 03:31:39;;;;;;;30.07;21.13;;;;;;;12.59;100.00;98288.25;5033148;28;20213;-83
2023/05/09 03:34:05;;;;;;;30.90;21.50;;;;;;;12.60;100.00;98284.63;5032945;28;20247;-83
2023/05/09 03:36:32;;;;;;;29.83;21.07;;;;;;;12.59;100.00;98286.44;5032863;28;20209;-83
2023/05/09 03:38:58;;;;;;;31.73;21.47;;;;;;;12.57;100.00;98282.19;5032796;28;20587;-82
2023/05/09 03:41:25;;;;;;;32.53;22.43;;;;;;;12.56;100.00;98283.16;5032666;28;20232;-83
2023/05/09 03:43:52;;;;;;;32.70;22.67;;;;;;;12.55;100.00;98284.13;5032982;28;20615;-82
2023/05/09 03:46:18;;;;;;;32.17;21.00;;;;;;;12.52;100.00;98281.69;5032942;28;20213;-83
2023/05/09 03:48:46;;;;;;;32.67;21.13;;;;;;;12.52;100.00;98281.69;5032583;28;20233;-82
2023/05/09 03:51:12;;;;;;;32.40;22.40;;;;;;;12.51;100.00;98280.88;5032263;28;20601;-82
2023/05/09 03:53:39;;;;;;;37.13;23.73;;;;;;;12.51;100.00;98274.69;5032911;28;20220;-83
2023/05/09 03:56:06;;;;;;;34.37;22.90;;;;;;;12.55;100.00;98278.81;5032502;28;20209;-83
2023/05/09 03:58:33;;;;;;;34.13;22.67;;;;;;;12.56;100.00;98278.72;5032838;28;20539;-82
2023/05/09 04:00:59;;;;;;;37.40;24.17;;;;;;;12.59;100.00;98289.09;5032155;28;20251;-82
2023/05/09 04:03:26;;;;;;;33.80;23.30;;;;;;;12.64;100.00;98288.72;5032539;28;20219;-82
2023/05/09 04:05:54;;;;;;;34.73;23.43;;;;;;;12.62;100.00;98283.56;5032328;28;20262;-82
2023/05/09 04:08:21;;;;;;;36.67;25.00;;;;;;;12.62;100.00;98283.56;5032618;28;20239;-82
2023/05/09 04:10:47;;;;;;;37.77;24.13;;;;;;;12.67;100.00;98283.22;5032302;28;20711;-82
2023/05/09 04:13:14;;;;;;;36.73;24.90;;;;;;;12.69;100.00;98283.94;5032260;28;20239;-83
2023/05/09 04:15:40;;;;;;;36.00;23.83;;;;;;;12.72;100.00;98281.88;5032448;28;20216;-85
2023/05/09 04:18:07;;;;;;;37.23;23.20;;;;;;;12.73;100.00;98280.09;5032073;28;20675;-84
2023/05/09 04:20:34;;;;;;;38.87;24.67;;;;;;;12.75;100.00;98286.13;5030827;28;20228;-83
2023/05/09 04:23:02;;;;;;;33.70;22.83;;;;;;;12.76;100.00;98285.16;5031968;28;20209;-83
2023/05/09 04:25:29;;;;;;;32.17;23.40;;;;;;;12.77;100.00;98286.88;5032250;28;20209;-83
2023/05/09 04:27:56;;;;;;;32.27;22.53;;;;;;;12.77;100.00;98286.88;5032157;28;20208;-84
2023/05/09 04:30:25;;;;;;;31.53;21.53;;;;;;;12.78;100.00;98277.94;5031785;28;20319;-83
2023/05/09 04:32:52;;;;;;;34.00;22.83;;;;;;;12.77;100.00;98287.69;5031920;28;20209;-83
2023/05/09 04:35:19;;;;;;;31.50;21.23;;;;;;;12.77;100.00;98293.00;5032156;28;20672;-83
2023/05/09 04:37:45;;;;;;;29.30;20.57;;;;;;;12.77;100.00;98293.00;5040412;28;20199;-83
2023/05/09 04:40:13;;;;;;;25.57;19.47;;;;;;;12.78;100.00;98291.22;5053252;28;20245;-83
2023/05/09 04:42:41;;;;;;;27.20;20.13;;;;;;;12.82;100.00;98290.00;5047518;28;20240;-83
2023/05/09 04:45:10;;;;;;;26.67;19.67;;;;;;;12.86;100.00;98302.06;5038127;28;20226;-83
2023/05/09 04:47:36;;;;;;;27.37;19.40;;;;;;;12.90;100.00;98299.06;5033409;28;20213;-83
2023/05/09 04:50:04;;;;;;;29.50;20.60;;;;;;;12.98;100.00;98303.84;5036015;28;20236;-82
2023/05/09 04:52:30;;;;;;;27.83;20.93;;;;;;;13.05;100.00;98294.44;5034377;28;20212;-83
2023/05/09 04:54:57;;;;;;;31.20;21.10;;;;;;;13.14;100.00;98296.41;5031806;28;20748;-83
2023/05/09 04:57:25;;;;;;;27.27;20.10;;;;;;;13.23;100.00;98296.53;5031712;28;20212;-83
2023/05/09 04:59:51;;;;;;;27.97;20.27;;;;;;;13.33;100.00;98286.88;5031313;28;20233;-84
2023/05/09 05:02:18;;;;;;;30.77;21.13;;;;;;;13.39;100.00;98290.88;5031621;28;20219;-83
2023/05/09 05:04:44;;;;;;;26.60;20.10;;;;;;;13.46;100.00;98292.09;5031837;28;20714;-84
2023/05/09 05:07:11;;;;;;;33.47;23.57;;;;;;;13.56;100.00;98293.91;5031737;28;20208;-83
2023/05/09 05:09:37;;;;;;;30.93;20.43;;;;;;;13.61;100.00;98296.19;5031118;28;20243;-84
2023/05/09 05:12:06;;;;;;;28.13;20.67;;;;;;;13.65;100.00;98292.34;5031372;28;20205;-84
2023/05/09 05:14:33;;;;;;;29.10;20.73;;;;;;;13.68;100.00;98292.13;5031193;28;20243;-84
2023/05/09 05:17:00;;;;;;;30.27;21.23;;;;;;;13.73;100.00;98296.09;5031154;28;20217;-84
2023/05/09 05:19:26;;;;;;;28.83;21.03;;;;;;;13.78;100.00;98304.53;5031127;28;20225;-84
2023/05/09 05:21:53;;;;;;;27.27;19.53;;;;;;;13.82;100.00;98303.31;5031576;28;20593;-84
2023/05/09 05:24:19;;;;;;;27.70;20.60;;;;;;;13.93;100.00;98291.84;5051439;28;20211;-84
2023/05/09 05:26:46;;;;;;;26.80;20.03;;;;;;;14.01;100.00;98294.72;5051358;28;20639;-83
2023/05/09 05:29:12;;;;;;;26.80;20.03;;;;;;;14.06;100.00;98293.38;5050826;28;20239;-84
2023/05/09 05:31:40;;;;;;;27.87;19.63;;;;;;;14.13;100.00;98288.41;5054462;28;20211;-83
2023/05/09 05:34:07;;;;;;;28.13;20.73;;;;;;;14.22;100.00;98287.69;5055391;28;20228;-82
2023/05/09 05:36:33;;;;;;;27.20;20.47;;;;;;;14.30;100.00;98290.59;5055580;28;20211;-82
2023/05/09 05:39:00;;;;;;;24.23;19.37;;;;;;;14.42;100.00;98289.59;5055335;28;20216;-84
2023/05/09 05:41:26;;;;;;;30.13;20.90;;;;;;;14.49;100.00;98280.97;5055109;28;20229;-83
2023/05/09 05:43:53;;;;;;;29.37;21.43;;;;;;;14.56;100.00;98282.19;5055424;28;20205;-84
2023/05/09 05:46:19;;;;;;;27.80;20.40;;;;;;;14.67;100.00;98284.75;5055596;28;20211;-83
2023/05/09 05:48:47;;;;;;;29.70;20.87;;;;;;;14.78;100.00;98275.91;5055408;28;20588;-84
2023/05/09 05:51:13;;;;;;;29.47;21.03;;;;;;;14.89;100.00;98283.81;5054832;28;20225;-83
2023/05/09 05:53:40;;;;;;;30.77;22.23;;;;;;;14.97;100.00;98276.03;5055312;28;20572;-84
2023/05/09 05:56:07;;;;;;;27.37;20.50;;;;;;;15.08;100.00;98274.16;5054951;28;20210;-79
2023/05/09 05:58:33;;;;;;;25.37;19.63;;;;;;;15.14;100.00;98276.28;5054767;28;20699;-79
2023/05/09 06:01:00;;;;;;;27.40;20.37;;;;;;;15.20;100.00;98274.91;5054234;28;20324;-80
2023/05/09 06:03:27;;;;;;;31.10;21.40;;;;;;;15.30;100.00;98270.50;5054631;28;20206;-77
2023/05/09 06:05:55;;;;;;;25.53;19.87;;;;;;;15.34;100.00;98275.44;5054818;28;20562;-77
2023/05/09 06:08:22;;;;;;;26.97;19.67;;;;;;;15.40;100.00;98274.09;5054452;28;20244;-77
2023/05/09 06:10:48;;;;;;;25.50;19.40;;;;;;;15.51;100.00;98271.34;5053704;28;20234;-77
2023/05/09 06:13:15;;;;;;;25.13;18.33;;;;;;;15.71;100.00;98273.13;5054550;28;20229;-77
2023/05/09 06:15:41;;;;;;;25.27;19.27;;;;;;;15.96;100.00;98269.97;5054590;28;20617;-78
2023/05/09 06:18:08;;;;;;;29.97;21.27;;;;;;;16.24;100.00;98257.56;5054534;28;20207;-76
2023/05/09 06:20:35;;;;;;;27.10;20.70;;;;;;;16.59;100.00;98252.56;5054177;28;20281;-76
2023/05/09 06:23:03;;;;;;;26.90;19.47;;;;;;;16.99;100.00;98245.22;5054473;28;20215;-79
2023/05/09 06:25:30;;;;;;;24.03;18.00;;;;;;;17.61;100.00;98242.84;5054240;28;20578;-76
2023/05/09 06:27:56;;;;;;;23.07;18.17;;;;;;;18.37;100.00;98239.78;5054478;28;20215;-77
2023/05/09 06:30:23;;;;;;;19.67;16.80;;;;;;;19.17;100.00;98234.28;5054152;28;20235;-78
2023/05/09 06:32:49;;;;;;;20.07;16.30;;;;;;;19.87;98.60;98226.00;5054461;28;20211;-78
2023/05/09 06:35:15;;;;;;;21.30;17.33;;;;;;;20.09;92.21;98215.56;5054007;28;20209;-78
2023/05/09 06:37:42;;;;;;;20.87;16.60;;;;;;;20.18;93.16;98236.03;5054230;28;20215;-76
2023/05/09 06:40:10;;;;;;;18.57;16.27;;;;;;;20.19;90.17;98221.59;5053535;28;20223;-78
2023/05/09 06:42:37;;;;;;;20.60;17.20;;;;;;;20.13;90.86;98222.28;5052986;28;20211;-77
2023/05/09 06:45:04;;;;;;;19.90;16.77;;;;;;;19.94;91.66;98213.63;5054025;28;20591;-78
2023/05/09 06:47:30;;;;;;;20.37;16.97;;;;;;;19.55;93.54;98226.69;5053815;28;20214;-79
2023/05/09 06:49:57;;;;;;;20.13;16.87;;;;;;;19.15;94.89;98231.75;5053567;28;20236;-79
2023/05/09 06:52:23;;;;;;;20.60;16.67;;;;;;;18.85;97.12;98234.03;5053745;28;20208;-77
2023/05/09 06:54:50;;;;;;;19.17;14.90;;;;;;;18.63;98.84;98238.03;5053747;28;20235;-78
2023/05/09 06:57:18;;;;;;;24.63;19.67;;;;;;;18.40;98.56;98239.47;5051834;28;20440;-78
2023/05/09 06:59:44;;;;;;;21.93;17.63;;;;;;;18.19;99.93;98233.53;5027397;28;20232;-79
2023/05/09 07:02:11;;;;;;;23.93;18.57;;;;;;;18.17;100.00;98235.50;5032607;28;20686;-78
2023/05/09 07:04:37;;;;;;;22.00;17.50;;;;;;;18.21;99.97;98226.19;5041450;28;20212;-78
2023/05/09 07:07:04;;;;;;;22.23;17.70;;;;;;;18.31;100.00;98224.34;5051942;28;20283;-78
2023/05/09 07:09:31;;;;;;;20.90;16.90;;;;;;;18.44;99.55;98219.44;5052211;28;20236;-78
2023/05/09 07:11:57;;;;;;;22.77;17.13;;;;;;;18.55;95.99;98213.88;5052289;28;20675;-78
2023/05/09 07:14:25;;;;;;;21.47;17.57;;;;;;;18.66;95.52;98208.25;5056879;28;20215;-78
2023/05/09 07:16:52;;;;;;;27.97;19.50;;;;;;;18.74;92.55;98200.31;5056421;28;20200;-78
2023/05/09 07:19:18;;;;;;;21.33;16.67;;;;;;;18.78;92.15;98193.63;5055837;28;20283;-78
2023/05/09 07:21:45;;;;;;;18.60;15.63;;;;;;;18.83;92.02;98191.31;5056578;28;20218;-79
2023/05/09 07:24:11;;;;;;;19.43;16.30;;;;;;;18.91;89.89;98204.78;5057535;28;20219;-78
2023/05/09 07:26:38;;;;;;;19.03;15.17;;;;;;;18.97;89.24;98188.06;5055144;28;20242;-78
2023/05/09 07:29:04;;;;;;;20.27;14.67;;;;;;;18.97;89.31;98181.91;5051737;28;20215;-78
2023/05/09 07:31:32;;;;;;;18.97;15.30;;;;;;;19.07;90.06;98183.47;5051835;28;20577;-78
2023/05/09 07:33:59;;;;;;;21.43;16.50;;;;;;;19.08;89.76;98174.44;5051461;28;20215;-78
2023/05/09 07:36:25;;;;;;;17.97;15.43;;;;;;;19.13;87.79;98166.75;5050671;28;20208;-78
2023/05/09 07:38:52;;;;;;;19.80;15.77;;;;;;;19.16;87.68;98163.78;5051141;28;20208;-78
2023/05/09 07:41:19;;;;;;;18.43;15.47;;;;;;;19.21;88.05;98158.78;5051548;28;20639;-78
2023/05/09 07:43:45;;;;;;;17.73;13.80;;;;;;;19.18;88.54;98148.38;5051696;28;20330;-78
2023/05/09 07:46:12;;;;;;;18.73;15.53;;;;;;;19.24;89.88;98158.50;5051483;28;20212;-78
2023/05/09 07:48:40;;;;;;;18.83;15.80;;;;;;;19.28;87.53;98142.94;5051301;28;20231;-78
2023/05/09 07:51:06;;;;;;;18.70;15.20;;;;;;;19.23;86.35;98139.88;5051171;28;20240;-78
2023/05/09 07:53:33;;;;;;;17.17;13.97;;;;;;;19.19;83.10;98123.25;5051346;28;20208;-78
2023/05/09 07:55:59;;;;;;;14.87;13.27;;;;;;;19.10;82.50;98118.88;5051629;28;20213;-78
2023/05/09 07:58:26;;;;;;;18.70;14.97;;;;;;;19.05;84.79;98129.22;5050959;28;20285;-78
2023/05/09 08:00:55;;;;;;;17.40;14.40;;;;;;;18.95;82.54;98103.53;5050381;28;20234;-78
2023/05/09 08:03:23;;;;;;;17.53;13.90;;;;;;;18.82;82.91;98120.03;5051104;28;20626;-77
2023/05/09 08:05:53;;;;;;;15.77;12.90;;;;;;;18.85;83.87;98127.75;5050209;28;20211;-77
2023/05/09 08:08:19;;;;;;;14.33;11.60;;;;;;;18.99;84.92;98119.13;5051086;28;20215;-78
2023/05/09 08:10:46;;;;;;;16.63;13.77;;;;;;;19.13;85.75;98109.69;5050947;28;20244;-78
2023/05/09 08:13:12;;;;;;;14.57;11.87;;;;;;;19.29;84.99;98107.94;5052543;28;20208;-79
2023/05/09 08:15:39;;;;;;;13.80;11.87;;;;;;;19.50;84.02;98094.13;5069656;28;20204;-78
2023/05/09 08:18:05;;;;;;;13.87;11.93;;;;;;;19.61;82.46;98093.81;5070603;28;20227;-79
2023/05/09 08:20:35;;;;;;;16.03;12.10;;;;;;;19.65;81.08;98087.97;5065128;28;20231;-79
2023/05/09 08:23:02;;;;;;;14.52;12.55;;;;;;;19.75;81.14;98077.09;5051179;28;20845;-79
2023/05/09 08:25:29;;;;;;;13.43;12.02;;;;;;;19.69;81.47;98077.75;5051308;28;20438;-79
2023/05/09 08:27:56;;;;;;;14.23;12.60;;;;;;;19.65;81.45;98071.88;5051656;28;20208;-80
2023/05/09 08:30:22;;;;;;;13.40;11.63;;;;;;;19.55;79.43;98060.44;5051324;28;20247;-77
2023/05/09 08:32:49;;;;;;;14.87;11.60;;;;;;;19.42;78.37;98049.34;5051944;28;20281;-78
2023/05/09 08:35:15;;;;;;;14.67;12.10;;;;;;;19.42;78.36;98048.50;5051719;28;20211;-79
2023/05/09 08:37:42;;;;;;;15.60;13.27;;;;;;;19.44;82.25;98068.78;5051808;28;20205;-77
2023/05/09 08:40:10;;;;;;;19.33;16.17;;;;;;;19.60;88.31;98078.72;5051427;28;20220;-76
2023/05/09 08:42:38;;;;;;;19.03;15.90;;;;;;;19.69;87.35;98067.84;5051643;28;20208;-76
2023/05/09 08:45:09;;;;;;;18.23;15.93;;;;;;;19.71;87.84;98070.38;5051612;28;20678;-80
2023/05/09 08:47:37;;;;;;;17.70;15.77;;;;;;;19.85;90.58;98067.03;5051956;28;20192;-79
2023/05/09 08:50:04;;;;;;;17.90;15.00;;;;;;;19.98;91.08;98067.41;5051018;28;20243;-81
2023/05/09 08:52:31;;;;;;;17.13;14.90;;;;;;;20.04;85.12;98054.16;5051643;28;20675;-82
2023/05/09 08:54:58;;;;;;;16.70;14.10;;;;;;;20.10;85.67;98042.81;5051512;28;20674;-82
2023/05/09 08:57:26;;;;;;;17.90;15.30;;;;;;;20.13;81.11;98034.44;5051469;28;20585;-81
2023/05/09 08:59:53;;;;;;;19.80;14.47;;;;;;;20.23;84.47;98051.19;5069035;22;20238;-73
2023/05/09 09:02:20;;;;;;;15.33;12.80;;;;;;;20.20;81.65;98046.16;5071102;28;20209;-73
2023/05/09 09:04:46;;;;;;;12.63;11.33;;;;;;;20.09;82.26;98051.88;5070884;28;20208;-73
2023/05/09 09:07:14;;;;;;;12.53;10.67;;;;;;;20.09;82.19;98051.88;5070828;28;20254;-73
2023/05/09 09:09:45;;;;;;;13.27;11.50;;;;;;;20.22;79.44;98044.16;5070493;28;20592;-73
2023/05/09 09:12:15;;;;;;;15.87;11.40;;;;;;;20.25;77.71;98037.59;5070674;28;20229;-74
2023/05/09 09:14:48;;;;;;;12.00;10.70;;;;;;;20.32;77.08;98030.56;5070822;28;20209;-73
2023/05/09 09:17:18;;;;;;;12.33;10.27;;;;;;;20.46;77.35;98025.34;5070846;28;20723;-73
2023/05/09 09:19:48;;;;;;;12.07;10.30;;;;;;;20.64;76.75;98022.44;5070499;28;20235;-73
2023/05/09 09:22:19;;;;;;;14.10;12.63;;;;;;;20.64;70.45;97985.69;5070840;28;20211;-74
2023/05/09 09:24:45;;;;;;;13.93;12.07;;;;;;;20.96;74.64;98012.47;5070933;28;20315;-73
2023/05/09 09:27:12;;;;;;;13.77;11.13;;;;;;;21.17;77.83;98031.56;5070892;28;20229;-73
2023/05/09 09:29:38;;;;;;;13.10;11.20;;;;;;;21.24;76.05;98016.41;5070440;28;20210;-74
2023/05/09 09:32:06;;;;;;;13.53;11.70;;;;;;;21.22;76.15;98013.03;5070624;28;20231;-73
2023/05/09 09:34:33;;;;;;;17.67;11.13;;;;;;;21.30;74.94;98002.28;5070770;28;20225;-74
2023/05/09 09:37:00;;;;;;;14.30;12.57;;;;;;;21.31;71.84;97974.38;5070670;28;20552;-73
2023/05/09 09:39:26;;;;;;;13.43;11.60;;;;;;;21.36;72.74;97980.06;5070678;28;20618;-74
2023/05/09 09:41:53;;;;;;;17.97;14.60;;;;;;;21.30;67.64;97948.50;5070678;28;20211;-73
2023/05/09 09:44:21;;;;;;;14.50;12.83;;;;;;;21.40;67.24;97951.78;5070713;28;20219;-73
2023/05/09 09:46:50;;;;;;;14.13;12.10;;;;;;;21.44;71.03;97968.41;5070640;28;20217;-73
2023/05/09 09:49:19;;;;;;;15.97;12.87;;;;;;;21.52;75.22;97985.31;5070300;28;20219;-73
2023/05/09 09:51:50;;;;;;;15.13;12.10;;;;;;;21.53;75.55;97981.59;5070307;28;20250;-73
2023/05/09 09:54:16;;;;;;;13.13;11.67;;;;;;;21.59;71.44;97967.44;5071125;28;20223;-73
2023/05/09 09:56:44;;;;;;;13.20;11.80;;;;;;;21.71;68.28;97936.47;5070358;28;20594;-74
2023/05/09 09:59:12;;;;;;;12.73;11.30;;;;;;;21.81;68.95;97942.44;5070300;28;20240;-73
2023/05/09 10:01:54;;;;;;;13.43;11.77;;;;;;;21.98;71.54;97946.69;5070335;28;20227;-73
2023/05/09 10:04:23;;;;;;;13.77;10.50;;;;;;;22.19;72.78;97949.50;5070339;28;20219;-74
2023/05/09 10:06:53;;;;;;;13.00;11.57;;;;;;;22.31;72.23;97936.44;5070669;28;20239;-74
2023/05/09 10:09:21;;;;;;;11.93;10.60;;;;;;;22.30;71.47;97937.47;5070153;28;20207;-74
2023/05/09 10:11:50;;;;;;;11.60;10.10;;;;;;;22.22;71.29;97927.63;5068901;28;20269;-75
2023/05/09 10:14:18;;;;;;;12.43;10.43;;;;;;;22.07;71.08;97917.84;5068771;28;20216;-74
2023/05/09 10:16:47;;;;;;;23.03;13.13;;;;;;;22.11;73.42;97925.34;5070625;28;20206;-74
2023/05/09 10:19:17;;;;;;;14.87;10.67;;;;;;;22.12;67.75;97892.03;5073876;28;20214;-74
2023/05/09 10:21:49;;;;;;;11.67;9.63;;;;;;;22.01;67.34;97887.09;5073875;28;20231;-75
2023/05/09 10:24:17;;;;;;;13.33;9.73;;;;;;;22.02;70.67;97893.31;5073811;28;20289;-74
2023/05/09 10:26:48;;;;;;;12.77;10.30;;;;;;;22.13;73.72;97912.53;5073796;28;20211;-75
2023/05/09 10:29:21;;;;;;;13.07;10.10;;;;;;;22.18;74.96;97909.31;5073425;28;20218;-74
2023/05/09 10:31:54;;;;;;;15.40;10.37;;;;;;;22.29;73.78;97898.94;5073755;28;20242;-75
2023/05/09 10:34:22;;;;;;;9.47;7.80;;;;;;;22.34;68.47;97872.28;5073477;28;20210;-74
2023/05/09 10:36:50;;;;;;;14.03;10.00;;;;;;;22.43;69.06;97879.28;5073663;28;20211;-74
2023/05/09 10:39:18;;;;;;;10.37;7.70;;;;;;;22.54;67.97;97862.66;5071957;28;20206;-74
2023/05/09 10:41:45;;;;;;;8.97;7.60;;;;;;;22.57;71.00;97883.84;5070482;28;20223;-75
2023/05/09 10:44:11;;;;;;;9.47;8.10;;;;;;;22.67;69.71;97873.59;5070761;28;20204;-74
2023/05/09 10:46:38;;;;;;;9.13;8.23;;;;;;;22.62;65.25;97840.97;5070935;28;20572;-74
2023/05/09 10:49:05;;;;;;;8.87;7.97;;;;;;;22.56;64.73;97844.44;5073480;28;20205;-74
2023/05/09 10:51:32;;;;;;;8.53;7.63;;;;;;;22.51;65.61;97849.56;5073030;28;20812;-74
2023/05/09 10:54:00;;;;;;;11.10;7.47;;;;;;;22.51;65.40;97854.97;5070622;28;20211;-74
2023/05/09 10:56:30;;;;;;;12.70;9.70;;;;;;;22.49;65.01;97848.09;5070640;28;20211;-74
2023/05/09 10:58:57;;;;;;;8.70;7.80;;;;;;;22.48;66.35;97846.38;5070635;28;20250;-74
2023/05/09 11:01:33;;;;;;;8.07;7.07;;;;;;;22.58;65.13;97836.16;5071867;28;20245;-75
2023/05/09 11:04:01;;;;;;;8.10;7.30;;;;;;;22.72;66.63;97838.84;5073220;28;20211;-75
2023/05/09 11:06:42;;;;;;;8.30;7.17;;;;;;;22.90;67.69;97841.97;5073223;28;20207;-78
2023/05/09 11:09:33;;;;;;;18.37;12.07;;;;;;;23.15;63.29;97808.22;5073304;28;20211;-78
2023/05/09 11:12:10;;;;;;;10.27;8.37;;;;;;;23.09;65.81;97822.47;5073223;28;20224;-79
2023/05/09 11:14:43;;;;;;;11.00;8.13;;;;;;;23.07;65.54;97813.75;5073010;28;20234;-79
2023/05/09 11:17:11;;;;;;;8.20;7.40;;;;;;;23.02;64.66;97804.56;5072770;28;20243;-78